Time;durP1;ratioP1;P1;durP2;ratioP2;P2;SDS_P1;SDS_P2;PMS_P1;PMS_P2;Temp;Humidity;BMP_temperature;BMP_pressure;BME280_temperature;BME280_humidity;BME280_pressure;Samples;Min_cycle;Max_cycle;Signal;HPM_P1;HPM_P2
2022/12/23 00:00:54;;;;;;;0.55;0.55;;;16.90;53.20;;;;;;5064940;27;45281;-76
2022/12/23 00:03:21;;;;;;;0.60;0.60;;;16.90;53.20;;;;;;5064502;28;47542;-77
2022/12/23 00:05:48;;;;;;;0.50;0.50;;;16.90;53.20;;;;;;5064384;28;45312;-77
2022/12/23 00:08:15;;;;;;;0.60;0.60;;;16.90;53.30;;;;;;5064439;27;45300;-78
2022/12/23 00:10:43;;;;;;;0.57;0.47;;;16.90;53.40;;;;;;5064953;28;45333;-78
2022/12/23 00:16:03;;;;;;;0.90;0.60;;;16.90;53.40;;;;;;5062088;28;45189;-78
2022/12/23 00:18:30;;;;;;;0.55;0.55;;;16.90;53.50;;;;;;5064780;27;45187;-78
2022/12/23 00:21:00;;;;;;;0.63;0.55;;;16.90;53.50;;;;;;5064673;27;45450;-77
2022/12/23 00:23:27;;;;;;;1.17;0.40;;;16.90;53.60;;;;;;5064294;27;45472;-78
2022/12/23 00:25:55;;;;;;;1.00;0.60;;;16.90;53.60;;;;;;5064185;28;45320;-78
2022/12/23 00:28:23;;;;;;;0.55;0.45;;;16.90;53.60;;;;;;5064560;27;45218;-78
2022/12/23 00:30:51;;;;;;;0.90;0.60;;;16.90;53.60;;;;;;5064835;27;45436;-77
2022/12/23 00:33:18;;;;;;;0.30;0.30;;;16.90;53.70;;;;;;5064175;27;45236;-77
2022/12/23 00:35:46;;;;;;;1.00;0.60;;;16.90;53.60;;;;;;5064507;28;45284;-77
2022/12/23 00:38:13;;;;;;;0.40;0.40;;;16.80;53.60;;;;;;5060986;28;45200;-78
2022/12/23 00:43:26;;;;;;;0.52;0.50;;;16.80;53.70;;;;;;5061550;28;45876;-78
2022/12/23 00:45:58;;;;;;;0.40;0.40;;;16.80;53.70;;;;;;5064222;27;45276;-78
2022/12/23 00:51:09;;;;;;;0.52;0.52;;;16.80;53.70;;;;;;5062105;28;45191;-77
2022/12/23 00:53:35;;;;;;;0.85;0.40;;;16.80;53.70;;;;;;5063998;28;46369;-77
2022/12/23 00:56:02;;;;;;;0.50;0.50;;;16.80;53.90;;;;;;5064431;28;45305;-78
2022/12/23 00:58:31;;;;;;;0.30;0.30;;;16.80;53.80;;;;;;5064268;27;45281;-77
2022/12/23 01:06:26;;;;;;;0.35;0.35;;;16.80;53.90;;;;;;5064379;28;45297;-78
2022/12/23 01:08:53;;;;;;;0.40;0.40;;;16.80;54.00;;;;;;5063986;27;45190;-78
2022/12/23 01:11:20;;;;;;;0.40;0.40;;;16.80;54.00;;;;;;5064276;27;45172;-78
2022/12/23 01:13:48;;;;;;;0.30;0.30;;;16.80;54.00;;;;;;5063741;27;46334;-77
2022/12/23 01:16:15;;;;;;;0.65;0.45;;;16.80;54.00;;;;;;5063759;27;45446;-77
2022/12/23 01:18:42;;;;;;;2.25;0.40;;;16.80;54.10;;;;;;5064024;27;45218;-77
2022/12/23 01:21:09;;;;;;;0.40;0.40;;;16.80;54.10;;;;;;5063149;28;45390;-78
2022/12/23 01:23:36;;;;;;;1.83;0.50;;;16.80;54.00;;;;;;5060485;28;45261;-78
2022/12/23 01:26:05;;;;;;;0.73;0.40;;;16.80;54.10;;;;;;5060903;27;45310;-77
2022/12/23 01:28:32;;;;;;;0.40;0.40;;;16.80;54.10;;;;;;5063799;28;45274;-77
2022/12/23 01:31:01;;;;;;;0.40;0.30;;;16.80;54.10;;;;;;5061306;28;45165;-77
2022/12/23 01:33:28;;;;;;;0.40;0.40;;;16.80;54.10;;;;;;5063345;28;46336;-77
2022/12/23 01:35:59;;;;;;;0.43;0.40;;;16.80;54.20;;;;;;5063430;28;45349;-77
2022/12/23 01:38:26;;;;;;;0.38;0.38;;;16.80;54.10;;;;;;5063721;28;45252;-78
2022/12/23 01:40:53;;;;;;;0.40;0.40;;;16.80;54.10;;;;;;5063628;27;45314;-77
2022/12/23 01:43:19;;;;;;;0.30;0.30;;;16.80;54.10;;;;;;5063325;28;45400;-78
2022/12/23 01:45:46;;;;;;;0.35;0.35;;;16.80;54.10;;;;;;5063628;28;45232;-77
2022/12/23 01:48:15;;;;;;;0.43;0.43;;;16.80;54.20;;;;;;5063424;27;45200;-77
2022/12/23 01:50:44;;;;;;;0.90;0.30;;;16.80;54.20;;;;;;5066126;27;45312;-77
2022/12/23 01:53:13;;;;;;;0.30;0.30;;;16.80;54.20;;;;;;5066300;27;45449;-77
2022/12/23 01:55:43;;;;;;;1.10;0.43;;;16.80;54.20;;;;;;5066353;27;45205;-77
2022/12/23 01:58:11;;;;;;;0.17;0.17;;;16.80;54.20;;;;;;5066584;27;45223;-77
2022/12/23 02:03:43;;;;;;;0.20;0.20;;;16.80;54.20;;;;;;5066554;28;45786;-77
2022/12/23 02:12:15;;;;;;;0.47;0.47;;;16.80;54.40;;;;;;5063914;28;45239;-77
2022/12/23 02:17:37;;;;;;;0.35;0.35;;;16.80;54.40;;;;;;5063505;28;45321;-77
2022/12/23 02:20:38;;;;;;;0.40;0.40;;;16.80;54.40;;;;;;5066230;27;45180;-76
2022/12/23 02:23:25;;;;;;;0.20;0.20;;;16.80;54.40;;;;;;5074531;27;45380;-77
2022/12/23 02:26:06;;;;;;;0.68;0.45;;;16.80;54.40;;;;;;5065611;27;46741;-77
2022/12/23 02:28:47;;;;;;;0.38;0.30;;;16.80;54.50;;;;;;5065900;28;45302;-77
2022/12/23 02:31:17;;;;;;;0.40;0.40;;;16.80;54.40;;;;;;5065382;27;45174;-77
2022/12/23 02:33:48;;;;;;;0.30;0.30;;;16.80;54.50;;;;;;5066001;27;45239;-77
2022/12/23 02:36:22;;;;;;;0.35;0.32;;;16.80;54.50;;;;;;5066042;28;45166;-77
2022/12/23 02:38:53;;;;;;;0.30;0.30;;;16.80;54.60;;;;;;5065912;27;45484;-77
2022/12/23 02:41:21;;;;;;;0.52;0.30;;;16.80;54.60;;;;;;5065769;27;45283;-77
2022/12/23 02:43:49;;;;;;;0.30;0.30;;;16.80;54.60;;;;;;5066016;27;45245;-77
2022/12/23 02:46:20;;;;;;;0.10;0.10;;;16.80;54.60;;;;;;5065879;27;46807;-77
2022/12/23 02:48:49;;;;;;;0.30;0.30;;;16.80;54.60;;;;;;5065663;28;45207;-77
2022/12/23 02:51:16;;;;;;;0.13;0.13;;;16.80;55.20;;;;;;5065821;27;45220;-77
2022/12/23 02:53:47;;;;;;;0.30;0.20;;;16.80;54.60;;;;;;5065782;27;45295;-77
2022/12/23 02:56:14;;;;;;;0.35;0.30;;;16.80;54.60;;;;;;5065437;28;46656;-77
2022/12/23 02:58:43;;;;;;;0.40;0.40;;;16.80;55.20;;;;;;5065532;28;45170;-76
2022/12/23 03:01:10;;;;;;;2.20;0.30;;;16.80;54.60;;;;;;5065304;28;45393;-77
2022/12/23 03:03:38;;;;;;;0.80;0.30;;;16.80;54.60;;;;;;5063204;28;45328;-77
2022/12/23 03:06:06;;;;;;;0.20;0.20;;;16.80;54.60;;;;;;5062973;28;45239;-77
2022/12/23 03:08:38;;;;;;;0.30;0.30;;;16.80;54.60;;;;;;5065419;28;45411;-77
2022/12/23 03:11:05;;;;;;;0.20;0.20;;;16.80;54.60;;;;;;5065593;27;45182;-77
2022/12/23 03:13:53;;;;;;;0.20;0.20;;;16.80;54.60;;;;;;5065731;27;45374;-76
2022/12/23 03:16:22;;;;;;;0.47;0.40;;;16.80;54.60;;;;;;5065407;28;47591;-77
2022/12/23 03:18:58;;;;;;;0.45;0.30;;;16.80;54.70;;;;;;5065209;27;45251;-77
2022/12/23 03:21:29;;;;;;;0.25;0.25;;;16.80;54.70;;;;;;5065493;27;45236;-77
2022/12/23 03:23:57;;;;;;;0.20;0.20;;;16.80;54.80;;;;;;5065446;27;45467;-77
2022/12/23 03:26:27;;;;;;;0.52;0.20;;;16.80;54.70;;;;;;5062843;28;45373;-77
2022/12/23 03:28:55;;;;;;;0.45;0.40;;;16.80;54.80;;;;;;5065064;27;45294;-77
2022/12/23 03:31:24;;;;;;;0.32;0.20;;;16.80;54.80;;;;;;5065553;27;45273;-77
2022/12/23 03:33:53;;;;;;;0.20;0.20;;;16.80;54.80;;;;;;5062873;28;45109;-77
2022/12/23 03:36:22;;;;;;;0.25;0.25;;;16.80;54.80;;;;;;5064451;28;46396;-75
2022/12/23 03:38:48;;;;;;;0.20;0.20;;;16.80;54.80;;;;;;5064334;27;45180;-77
2022/12/23 03:41:18;;;;;;;0.20;0.20;;;16.80;54.80;;;;;;5065177;28;45124;-77
2022/12/23 03:43:49;;;;;;;0.25;0.25;;;16.80;54.80;;;;;;5065286;27;45232;-76
2022/12/23 03:46:23;;;;;;;0.20;0.20;;;16.80;54.80;;;;;;5065029;27;46506;-77
2022/12/23 03:48:51;;;;;;;0.70;0.35;;;16.80;54.90;;;;;;5065013;27;45299;-77
2022/12/23 03:51:20;;;;;;;0.28;0.28;;;16.80;54.80;;;;;;5065002;27;45331;-77
2022/12/23 03:53:49;;;;;;;0.30;0.30;;;16.80;54.90;;;;;;5065241;28;45363;-76
2022/12/23 03:56:20;;;;;;;0.17;0.17;;;16.80;54.80;;;;;;5064697;28;46908;-77
2022/12/23 03:58:48;;;;;;;0.20;0.20;;;16.80;54.90;;;;;;5064740;28;45295;-77
2022/12/23 04:01:17;;;;;;;0.30;0.30;;;16.80;54.90;;;;;;5064798;28;45201;-77
2022/12/23 04:03:49;;;;;;;0.32;0.32;;;16.80;54.90;;;;;;5065126;28;45311;-77
2022/12/23 04:06:16;;;;;;;0.35;0.35;;;16.80;54.90;;;;;;5064619;27;45512;-76
2022/12/23 04:08:44;;;;;;;0.30;0.30;;;16.80;54.90;;;;;;5064723;28;45237;-77
2022/12/23 04:11:11;;;;;;;0.80;0.30;;;16.80;54.90;;;;;;5064548;28;45312;-77
2022/12/23 04:13:38;;;;;;;0.20;0.20;;;16.80;54.90;;;;;;5064035;28;45417;-77
2022/12/23 04:16:05;;;;;;;0.38;0.30;;;16.80;55.00;;;;;;5064576;27;45201;-77
2022/12/23 04:18:32;;;;;;;0.28;0.22;;;16.80;54.90;;;;;;5064572;28;45328;-77
2022/12/23 04:20:59;;;;;;;0.25;0.10;;;16.80;55.50;;;;;;5064872;28;45363;-77
2022/12/23 04:23:26;;;;;;;0.30;0.30;;;16.80;55.00;;;;;;5064707;28;45323;-77
2022/12/23 04:25:54;;;;;;;0.30;0.30;;;16.80;55.00;;;;;;5064195;27;46409;-77
2022/12/23 04:28:21;;;;;;;0.10;0.10;;;16.80;55.00;;;;;;5064159;28;45143;-76
2022/12/23 04:30:48;;;;;;;0.52;0.40;;;16.80;55.00;;;;;;5063881;27;45363;-77
2022/12/23 04:33:15;;;;;;;0.30;0.17;;;16.80;55.00;;;;;;5064508;27;45279;-77
2022/12/23 04:35:41;;;;;;;0.30;0.17;;;16.80;55.00;;;;;;5064348;28;46863;-77
2022/12/23 04:38:08;;;;;;;0.20;0.20;;;16.80;55.00;;;;;;5064310;28;45194;-77
2022/12/23 04:40:35;;;;;;;0.20;0.20;;;16.80;55.00;;;;;;5064469;28;45189;-77
2022/12/23 04:43:03;;;;;;;0.03;0.03;;;16.80;55.00;;;;;;5064500;27;45187;-77
2022/12/23 04:45:30;;;;;;;0.30;0.20;;;16.80;55.00;;;;;;5064285;28;45455;-77
2022/12/23 04:47:57;;;;;;;0.10;0.10;;;16.80;55.00;;;;;;5064108;27;45342;-76
2022/12/23 04:50:24;;;;;;;0.32;0.25;;;16.80;55.10;;;;;;5064347;27;45148;-77
2022/12/23 04:52:51;;;;;;;0.15;0.15;;;16.80;55.60;;;;;;5064425;27;45134;-77
2022/12/23 04:55:17;;;;;;;1.13;0.10;;;16.80;55.00;;;;;;5064356;28;46551;-77
2022/12/23 04:57:44;;;;;;;0.30;0.20;;;16.80;55.00;;;;;;5064287;28;45322;-77
2022/12/23 05:00:14;;;;;;;0.10;0.10;;;16.80;55.00;;;;;;5061558;28;45407;-77
2022/12/23 05:02:41;;;;;;;0.20;0.20;;;16.80;54.90;;;;;;5064196;27;45428;-77
2022/12/23 05:05:08;;;;;;;0.20;0.20;;;16.80;55.00;;;;;;5063941;28;45599;-77
2022/12/23 05:07:35;;;;;;;0.35;0.35;;;16.90;55.00;;;;;;5063914;28;45239;-77
2022/12/23 05:10:01;;;;;;;0.20;0.20;;;16.80;55.00;;;;;;5064091;27;45346;-77
2022/12/23 05:12:29;;;;;;;0.20;0.20;;;16.80;55.00;;;;;;5063800;28;45184;-77
2022/12/23 05:14:56;;;;;;;0.20;0.20;;;16.80;55.00;;;;;;5063632;27;45470;-77
2022/12/23 05:17:24;;;;;;;0.10;0.10;;;16.80;55.10;;;;;;5063974;28;45177;-77
2022/12/23 05:19:51;;;;;;;0.20;0.20;;;16.80;55.10;;;;;;5063969;28;45295;-77
2022/12/23 05:22:18;;;;;;;0.10;0.10;;;16.80;55.10;;;;;;5063986;28;45310;-77
2022/12/23 05:24:44;;;;;;;0.20;0.20;;;16.80;55.10;;;;;;5069478;28;45415;-77
2022/12/23 05:27:11;;;;;;;0.13;0.13;;;16.80;55.10;;;;;;5070006;28;45215;-77
2022/12/23 05:29:38;;;;;;;0.10;0.10;;;16.80;55.10;;;;;;5070785;27;45221;-77
2022/12/23 05:32:05;;;;;;;0.43;0.20;;;16.80;55.10;;;;;;5070489;28;45277;-77
2022/12/23 05:34:33;;;;;;;0.20;0.20;;;16.80;55.20;;;;;;5070140;27;45247;-77
2022/12/23 05:37:00;;;;;;;0.10;0.10;;;16.80;55.20;;;;;;5070274;28;45241;-77
2022/12/23 05:39:27;;;;;;;0.08;0.08;;;16.80;55.20;;;;;;5070296;27;45201;-77
2022/12/23 05:41:54;;;;;;;0.10;0.10;;;16.80;55.20;;;;;;5070334;28;45317;-77
2022/12/23 05:44:20;;;;;;;0.25;0.10;;;16.80;55.10;;;;;;5069988;28;46367;-76
2022/12/23 05:46:47;;;;;;;0.32;0.28;;;16.80;55.10;;;;;;5070212;27;45323;-77
2022/12/23 05:49:14;;;;;;;0.17;0.17;;;16.80;55.10;;;;;;5070220;28;45147;-77
2022/12/23 05:51:42;;;;;;;0.10;0.10;;;16.80;55.20;;;;;;5070351;27;45323;-76
2022/12/23 05:54:09;;;;;;;0.03;0.03;;;16.80;55.20;;;;;;5069855;28;46641;-76
2022/12/23 05:56:36;;;;;;;0.10;0.10;;;16.80;55.20;;;;;;5069099;27;45312;-77
2022/12/23 05:59:03;;;;;;;0.03;0.03;;;16.80;55.20;;;;;;5069933;27;45269;-77
2022/12/23 06:01:29;;;;;;;0.10;0.10;;;16.80;55.20;;;;;;5070085;28;45244;-77
2022/12/23 06:03:56;;;;;;;0.13;0.13;;;16.90;55.20;;;;;;5070154;27;46737;-76
2022/12/23 06:06:23;;;;;;;0.22;0.20;;;16.80;55.20;;;;;;5069818;27;45153;-77
2022/12/23 06:08:51;;;;;;;0.20;0.20;;;16.80;55.20;;;;;;5069789;27;45312;-77
2022/12/23 06:11:18;;;;;;;0.20;0.20;;;16.90;55.30;;;;;;5069955;28;45305;-76
2022/12/23 06:13:45;;;;;;;0.13;0.10;;;16.90;55.30;;;;;;5069467;27;45575;-76
2022/12/23 06:16:12;;;;;;;0.03;0.03;;;16.90;55.20;;;;;;5069650;27;45211;-76
2022/12/23 06:18:38;;;;;;;0.25;0.25;;;16.90;55.30;;;;;;5069786;27;45293;-76
2022/12/23 06:21:05;;;;;;;0.17;0.17;;;16.80;55.70;;;;;;5069978;27;45373;-77
2022/12/23 06:23:32;;;;;;;0.25;0.25;;;16.90;55.30;;;;;;5069295;27;46666;-77
2022/12/23 06:26:01;;;;;;;0.10;0.10;;;16.90;55.30;;;;;;5069228;27;45376;-77
2022/12/23 06:28:28;;;;;;;0.20;0.20;;;16.90;55.20;;;;;;5069362;27;45139;-77
2022/12/23 06:30:55;;;;;;;0.20;0.13;;;16.90;55.20;;;;;;5069735;27;45262;-77
2022/12/23 06:33:21;;;;;;;0.28;0.28;;;16.90;55.20;;;;;;5069293;27;45310;-76
2022/12/23 06:35:48;;;;;;;0.10;0.10;;;16.90;55.20;;;;;;5066607;28;45289;-77
2022/12/23 06:38:15;;;;;;;0.10;0.10;;;16.90;55.30;;;;;;5065103;28;45157;-77
2022/12/23 06:40:42;;;;;;;0.20;0.20;;;16.90;55.20;;;;;;5066005;27;45398;-77
2022/12/23 06:43:12;;;;;;;0.15;0.15;;;16.90;55.20;;;;;;5065770;28;47379;-77
2022/12/23 06:45:39;;;;;;;0.10;0.10;;;16.90;55.70;;;;;;5065686;28;45301;-77
2022/12/23 06:48:06;;;;;;;0.00;0.00;;;16.90;55.00;;;;;;5066039;28;45206;-77
2022/12/23 06:50:33;;;;;;;0.70;0.13;;;16.90;55.00;;;;;;5067149;28;45347;-77
2022/12/23 06:53:00;;;;;;;0.10;0.10;;;16.90;55.00;;;;;;5066714;27;45404;-77
2022/12/23 06:55:26;;;;;;;0.10;0.10;;;16.90;55.00;;;;;;5065602;27;45343;-77
2022/12/23 06:57:53;;;;;;;0.15;0.13;;;16.90;55.00;;;;;;5065942;27;45413;-77
2022/12/23 07:00:22;;;;;;;0.15;0.15;;;16.90;55.60;;;;;;5065957;28;45261;-77
2022/12/23 07:02:49;;;;;;;0.15;0.15;;;16.90;55.00;;;;;;5065325;28;46370;-77
2022/12/23 07:05:16;;;;;;;0.15;0.15;;;16.90;55.10;;;;;;5065680;27;45252;-76
2022/12/23 07:07:43;;;;;;;0.20;0.20;;;16.90;55.00;;;;;;5065562;28;45291;-76
2022/12/23 07:10:10;;;;;;;0.10;0.10;;;16.90;55.00;;;;;;5065913;27;45310;-76
2022/12/23 07:12:37;;;;;;;0.60;0.22;;;16.90;55.10;;;;;;5065256;28;45203;-77
2022/12/23 07:15:04;;;;;;;0.20;0.20;;;16.90;55.10;;;;;;5065707;28;45175;-77
2022/12/23 07:17:33;;;;;;;0.22;0.17;;;16.90;55.10;;;;;;5065593;28;45318;-77
2022/12/23 07:19:59;;;;;;;0.43;0.30;;;16.90;55.10;;;;;;5065113;27;45448;-76
2022/12/23 07:22:26;;;;;;;0.00;0.00;;;16.90;55.00;;;;;;5065002;27;45180;-76
2022/12/23 07:24:53;;;;;;;0.10;0.10;;;16.90;55.10;;;;;;5066226;27;45175;-77
2022/12/23 07:27:20;;;;;;;0.20;0.20;;;16.90;55.70;;;;;;5066770;28;45479;-76
2022/12/23 07:29:47;;;;;;;0.10;0.10;;;16.90;55.10;;;;;;5067305;27;45582;-76
2022/12/23 07:32:14;;;;;;;0.10;0.10;;;16.90;55.10;;;;;;5066076;27;45432;-76
2022/12/23 07:34:42;;;;;;;0.10;0.10;;;16.90;55.10;;;;;;5066646;27;45180;-76
2022/12/23 07:37:09;;;;;;;0.10;0.10;;;16.90;55.10;;;;;;5066668;27;45216;-77
2022/12/23 07:39:36;;;;;;;0.20;0.20;;;16.90;55.10;;;;;;5067440;27;45325;-76
2022/12/23 07:42:03;;;;;;;0.20;0.20;;;16.90;55.10;;;;;;5066024;27;45384;-76
2022/12/23 07:44:30;;;;;;;0.30;0.30;;;16.90;55.10;;;;;;5065618;27;45423;-76
2022/12/23 07:46:57;;;;;;;0.20;0.20;;;16.90;55.10;;;;;;5064323;27;45174;-76
2022/12/23 07:49:24;;;;;;;0.10;0.10;;;16.90;55.10;;;;;;5065751;28;45244;-76
2022/12/23 07:51:52;;;;;;;0.10;0.10;;;16.90;55.10;;;;;;5065084;28;46234;-76
2022/12/23 07:54:19;;;;;;;0.10;0.10;;;16.90;55.10;;;;;;5065490;28;45373;-76
2022/12/23 07:56:46;;;;;;;0.20;0.20;;;16.90;55.10;;;;;;5065249;27;45176;-76
2022/12/23 07:59:13;;;;;;;0.30;0.30;;;16.90;55.10;;;;;;5065332;27;45121;-76
2022/12/23 08:01:40;;;;;;;0.17;0.17;;;16.90;55.10;;;;;;5064516;28;45480;-77
2022/12/23 08:04:07;;;;;;;0.00;0.00;;;16.90;55.10;;;;;;5064961;27;45284;-77
2022/12/23 08:06:34;;;;;;;0.20;0.20;;;16.90;55.10;;;;;;5064614;27;45339;-75
2022/12/23 08:09:03;;;;;;;0.10;0.10;;;16.90;55.70;;;;;;5065700;28;45191;-75
2022/12/23 08:11:30;;;;;;;0.08;0.08;;;16.90;55.00;;;;;;5064547;28;45721;-75
2022/12/23 08:13:56;;;;;;;0.00;0.00;;;16.90;55.00;;;;;;5064478;28;45288;-75
2022/12/23 08:16:23;;;;;;;0.20;0.20;;;16.90;55.00;;;;;;5065493;27;45283;-75
2022/12/23 08:18:50;;;;;;;0.28;0.15;;;16.90;55.10;;;;;;5065118;27;45470;-75
2022/12/23 08:21:18;;;;;;;0.20;0.20;;;17.00;55.10;;;;;;5064512;28;45405;-75
2022/12/23 08:23:45;;;;;;;0.17;0.17;;;17.00;55.10;;;;;;5064832;28;45329;-75
2022/12/23 08:26:14;;;;;;;0.00;0.00;;;17.00;55.10;;;;;;5064716;27;45234;-75
2022/12/23 08:28:41;;;;;;;0.20;0.10;;;17.00;55.10;;;;;;5064945;27;45195;-75
2022/12/23 08:31:09;;;;;;;0.20;0.20;;;17.00;55.00;;;;;;5064453;27;45238;-75
2022/12/23 08:33:37;;;;;;;0.20;0.20;;;16.90;55.00;;;;;;5064539;28;45443;-75
2022/12/23 08:36:04;;;;;;;0.10;0.10;;;17.00;54.90;;;;;;5064792;27;45443;-75
2022/12/23 08:38:31;;;;;;;0.20;0.20;;;17.00;54.80;;;;;;5064895;27;45348;-75
2022/12/23 08:40:58;;;;;;;0.10;0.10;;;17.00;54.70;;;;;;5064606;28;45468;-75
2022/12/23 08:43:26;;;;;;;0.10;0.10;;;17.00;54.70;;;;;;5065718;27;45263;-75
2022/12/23 08:45:53;;;;;;;0.20;0.20;;;17.00;54.70;;;;;;5066209;28;45447;-75
2022/12/23 08:48:20;;;;;;;0.00;0.00;;;17.00;54.60;;;;;;5065476;28;45366;-74
2022/12/23 08:50:47;;;;;;;0.08;0.08;;;17.00;54.60;;;;;;5063628;28;46630;-76
2022/12/23 08:53:14;;;;;;;0.10;0.10;;;17.10;54.60;;;;;;5064978;27;45307;-74
2022/12/23 08:55:41;;;;;;;0.17;0.17;;;17.00;54.60;;;;;;5063916;27;45163;-75
2022/12/23 08:58:08;;;;;;;0.20;0.20;;;17.00;54.60;;;;;;5063788;27;45470;-76
2022/12/23 09:00:36;;;;;;;0.20;0.10;;;17.00;54.60;;;;;;5064265;27;45449;-75
2022/12/23 09:03:03;;;;;;;0.10;0.10;;;17.10;54.80;;;;;;5064066;28;45316;-75
2022/12/23 09:05:30;;;;;;;0.20;0.20;;;17.10;54.90;;;;;;5064312;28;45132;-76
2022/12/23 09:07:57;;;;;;;0.10;0.10;;;17.10;55.00;;;;;;5064232;28;45375;-76
2022/12/23 09:10:24;;;;;;;0.10;0.10;;;17.10;55.10;;;;;;5063954;28;47547;-77
2022/12/23 09:12:51;;;;;;;0.20;0.20;;;17.10;55.30;;;;;;5063772;28;45250;-78
2022/12/23 09:15:18;;;;;;;0.22;0.22;;;17.10;55.50;;;;;;5063974;28;45192;-77
2022/12/23 09:17:46;;;;;;;0.10;0.10;;;17.10;55.50;;;;;;5064281;28;45180;-77
2022/12/23 09:20:13;;;;;;;0.30;0.17;;;17.10;55.70;;;;;;5063532;28;46668;-75
2022/12/23 09:22:40;;;;;;;0.82;0.30;;;17.10;56.00;;;;;;5062915;27;45315;-75
2022/12/23 09:25:07;;;;;;;0.20;0.20;;;17.10;56.20;;;;;;5084561;27;45334;-77
2022/12/23 09:27:34;;;;;;;0.10;0.10;;;17.10;56.30;;;;;;5077177;27;45437;-74
2022/12/23 09:30:00;;;;;;;0.28;0.28;;;17.10;56.10;;;;;;5110783;27;45222;-77
2022/12/23 09:32:27;;;;;;;0.22;0.22;;;17.10;56.10;;;;;;5129584;27;45453;-75
2022/12/23 09:34:56;;;;;;;0.28;0.28;;;17.10;56.30;;;;;;5060539;28;45346;-78
2022/12/23 09:37:24;;;;;;;0.10;0.10;;;17.10;56.40;;;;;;5064021;28;45171;-77
2022/12/23 09:39:51;;;;;;;0.30;0.20;;;17.20;56.60;;;;;;5063543;28;46842;-77
2022/12/23 09:42:26;;;;;;;0.32;0.20;;;17.20;57.20;;;;;;5070949;27;45232;-77
2022/12/23 09:45:03;;;;;;;0.10;0.10;;;17.20;56.70;;;;;;5080928;27;45312;-78
2022/12/23 09:47:30;;;;;;;1.73;0.28;;;17.20;56.90;;;;;;5169989;27;45343;-76
2022/12/23 09:49:59;;;;;;;0.30;0.30;;;17.20;56.90;;;;;;5131141;27;46687;-77
2022/12/23 09:52:30;;;;;;;0.20;0.20;;;17.20;57.00;;;;;;5089019;27;45546;-77
2022/12/23 09:54:57;;;;;;;0.20;0.20;;;17.20;57.20;;;;;;5151175;27;45200;-76
2022/12/23 09:57:28;;;;;;;1.00;0.40;;;17.20;57.30;;;;;;5098281;27;45322;-77
2022/12/23 10:00:02;;;;;;;0.17;0.17;;;17.20;57.30;;;;;;5111621;27;47305;-77
2022/12/23 10:02:36;;;;;;;0.20;0.20;;;17.20;57.30;;;;;;5140119;27;45416;-78
2022/12/23 10:05:06;;;;;;;0.55;0.30;;;17.20;57.20;;;;;;5066019;27;45283;-78
2022/12/23 10:07:35;;;;;;;0.30;0.30;;;17.20;57.30;;;;;;5107133;27;45193;-77
2022/12/23 10:10:06;;;;;;;0.20;0.20;;;17.20;57.30;;;;;;5116717;27;45352;-77
2022/12/23 10:12:36;;;;;;;1.88;0.30;;;17.20;57.20;;;;;;5172110;27;45366;-77
2022/12/23 10:15:03;;;;;;;0.30;0.30;;;17.20;57.10;;;;;;5067097;27;46283;-77
2022/12/23 10:17:32;;;;;;;0.30;0.30;;;17.20;57.10;;;;;;5071977;27;45380;-77
2022/12/23 10:20:00;;;;;;;0.38;0.25;;;17.20;57.00;;;;;;5066321;28;47679;-78
2022/12/23 10:22:32;;;;;;;0.30;0.25;;;17.20;57.00;;;;;;5114673;27;45320;-77
2022/12/23 10:24:59;;;;;;;0.30;0.30;;;17.20;56.90;;;;;;5099911;27;45275;-77
2022/12/23 10:27:29;;;;;;;0.40;0.40;;;17.20;56.80;;;;;;5154151;27;45495;-77
2022/12/23 10:29:56;;;;;;;0.40;0.40;;;17.20;56.80;;;;;;5091879;27;45459;-77
2022/12/23 10:32:25;;;;;;;0.25;0.25;;;17.20;56.80;;;;;;5126806;27;45383;-79
2022/12/23 10:34:54;;;;;;;1.00;0.35;;;17.20;56.70;;;;;;5133299;27;45283;-79
2022/12/23 10:37:23;;;;;;;0.20;0.20;;;17.20;56.70;;;;;;5090434;27;45375;-77
2022/12/23 10:40:07;;;;;;;0.10;0.10;;;17.20;56.70;;;;;;5087709;27;45462;-78
2022/12/23 10:42:37;;;;;;;0.38;0.20;;;17.20;56.70;;;;;;5141867;27;45467;-77
2022/12/23 10:45:34;;;;;;;0.47;0.40;;;17.20;56.60;;;;;;5095827;27;45320;-77
2022/12/23 10:48:07;;;;;;;0.30;0.30;;;17.20;56.70;;;;;;5068453;27;45539;-76
2022/12/23 10:50:54;;;;;;;0.10;0.10;;;17.20;56.60;;;;;;5118222;27;47570;-76
2022/12/23 10:53:30;;;;;;;0.20;0.20;;;17.20;56.60;;;;;;5153578;27;45243;-77
2022/12/23 10:55:58;;;;;;;0.55;0.30;;;17.30;56.70;;;;;;5092321;27;45299;-76
2022/12/23 10:58:24;;;;;;;0.30;0.30;;;17.20;56.60;;;;;;5125117;27;45455;-77
2022/12/23 11:00:53;;;;;;;0.30;0.30;;;17.30;56.60;;;;;;5131990;27;45446;-76
2022/12/23 11:03:22;;;;;;;0.68;0.25;;;17.30;56.60;;;;;;5082904;27;45302;-77
2022/12/23 11:05:50;;;;;;;0.13;0.13;;;17.30;56.60;;;;;;5051976;28;45352;-77
2022/12/23 11:08:17;;;;;;;0.13;0.13;;;17.30;56.60;;;;;;5110443;27;45341;-77
2022/12/23 11:10:44;;;;;;;0.10;0.10;;;17.30;56.50;;;;;;5110062;27;45344;-77
2022/12/23 11:13:17;;;;;;;0.20;0.20;;;17.30;56.50;;;;;;5067070;28;45441;-76
2022/12/23 11:15:44;;;;;;;0.30;0.30;;;17.30;56.50;;;;;;5153532;27;45383;-77
2022/12/23 11:18:17;;;;;;;0.85;0.35;;;17.30;56.60;;;;;;5065864;27;45252;-77
2022/12/23 11:20:44;;;;;;;0.55;0.30;;;17.20;56.50;;;;;;5125760;27;45572;-76
2022/12/23 11:23:23;;;;;;;0.30;0.30;;;17.30;57.00;;;;;;5121814;27;45691;-76
2022/12/23 11:25:51;;;;;;;0.10;0.10;;;17.30;56.60;;;;;;5099456;27;45308;-75
2022/12/23 11:28:20;;;;;;;3.00;0.40;;;17.30;56.80;;;;;;5096211;27;45425;-72
2022/12/23 11:30:48;;;;;;;2.95;0.25;;;17.30;58.20;;;;;;5090948;27;46331;-78
2022/12/23 11:33:20;;;;;;;0.68;0.25;;;17.30;57.60;;;;;;5083770;27;45225;-78
2022/12/23 11:35:47;;;;;;;2.72;0.40;;;17.30;57.20;;;;;;5100762;27;45368;-79
2022/12/23 11:38:14;;;;;;;0.50;0.30;;;17.40;57.30;;;;;;5070638;27;45450;-77
2022/12/23 11:40:41;;;;;;;0.20;0.20;;;17.40;57.20;;;;;;5061200;27;47355;-80
2022/12/23 11:43:13;;;;;;;1.95;0.30;;;17.40;57.00;;;;;;5064864;27;45359;-78
2022/12/23 11:45:41;;;;;;;3.00;0.50;;;17.50;56.90;;;;;;5058522;27;45449;-77
2022/12/23 11:48:26;;;;;;;3.47;0.30;;;17.50;57.10;;;;;;5075983;27;45544;-74
2022/12/23 11:50:58;;;;;;;0.57;0.30;;;17.50;57.00;;;;;;5055881;27;45457;-76
2022/12/23 11:53:26;;;;;;;0.28;0.28;;;17.60;57.30;;;;;;5078742;27;45537;-74
2022/12/23 11:55:58;;;;;;;2.90;0.40;;;17.60;57.30;;;;;;5065249;27;45524;-75
2022/12/23 11:58:24;;;;;;;2.28;1.08;;;17.70;57.40;;;;;;5065756;27;45623;-80
2022/12/23 12:00:54;;;;;;;2.05;1.10;;;17.70;57.40;;;;;;5059936;27;45389;-78
2022/12/23 12:03:23;;;;;;;2.30;1.20;;;17.80;57.30;;;;;;5063620;27;45412;-77
2022/12/23 12:05:51;;;;;;;2.40;0.93;;;17.80;57.40;;;;;;5058725;27;45431;-74
2022/12/23 12:08:21;;;;;;;4.32;1.00;;;17.90;57.20;;;;;;5063877;27;45129;-76
2022/12/23 12:10:48;;;;;;;2.70;0.88;;;17.90;57.20;;;;;;5068968;27;45542;-76
2022/12/23 12:13:22;;;;;;;4.97;1.13;;;17.90;57.10;;;;;;5059399;27;45554;-77
2022/12/23 12:15:52;;;;;;;1.30;1.15;;;17.90;57.00;;;;;;5060954;27;45371;-79
2022/12/23 12:18:20;;;;;;;2.25;0.90;;;18.00;56.90;;;;;;5087726;27;45245;-75
2022/12/23 12:20:48;;;;;;;7.53;1.35;;;18.00;57.00;;;;;;5073071;27;46399;-74
2022/12/23 12:23:17;;;;;;;6.07;1.10;;;18.10;57.90;;;;;;5081036;27;45209;-78
2022/12/23 12:25:44;;;;;;;3.08;1.98;;;18.10;57.30;;;;;;5059983;27;46172;-79
2022/12/23 12:28:13;;;;;;;5.65;5.03;;;18.20;56.90;;;;;;5072685;27;45320;-78
2022/12/23 12:30:43;;;;;;;5.80;4.10;;;18.20;56.80;;;;;;5076155;27;45415;-82
2022/12/23 12:33:13;;;;;;;10.75;4.88;;;18.20;57.00;;;;;;5062048;27;45430;-80
2022/12/23 12:35:43;;;;;;;6.03;4.57;;;18.30;57.20;;;;;;5090977;27;45321;-79
2022/12/23 12:38:14;;;;;;;12.10;8.15;;;18.30;57.10;;;;;;5064453;27;45641;-78
2022/12/23 12:40:42;;;;;;;18.95;15.20;;;18.40;57.30;;;;;;5050823;27;45544;-84
2022/12/23 12:43:16;;;;;;;26.85;21.90;;;18.40;57.10;;;;;;5056570;27;45469;-78
2022/12/23 12:45:47;;;;;;;23.45;19.73;;;18.40;57.20;;;;;;5073584;27;45471;-79
2022/12/23 12:48:25;;;;;;;16.80;14.13;;;18.50;57.30;;;;;;5069312;27;45448;-76
2022/12/23 12:50:59;;;;;;;21.02;16.00;;;18.60;57.30;;;;;;5078678;27;45408;-78
2022/12/23 12:53:25;;;;;;;27.02;24.13;;;18.60;57.50;;;;;;5131949;27;45216;-79
2022/12/23 12:55:55;;;;;;;23.30;19.08;;;18.60;57.20;;;;;;5102901;27;45193;-75
2022/12/23 12:58:23;;;;;;;11.45;10.27;;;18.70;56.90;;;;;;5141120;27;45313;-76
2022/12/23 13:00:55;;;;;;;8.32;7.57;;;18.70;56.30;;;;;;5087117;27;45379;-76
2022/12/23 13:03:29;;;;;;;16.08;14.43;;;18.70;56.30;;;;;;5102168;27;45311;-76
2022/12/23 13:06:00;;;;;;;16.90;13.48;;;18.60;56.50;;;;;;5073956;27;45437;-83
2022/12/23 13:08:44;;;;;;;11.23;9.45;;;18.70;56.60;;;;;;5052570;28;45385;-80
2022/12/23 13:11:14;;;;;;;14.27;8.95;;;18.70;57.10;;;;;;5061392;28;45533;-79
2022/12/23 13:13:45;;;;;;;10.40;7.90;;;18.70;57.30;;;;;;5065567;27;45411;-81
2022/12/23 13:16:17;;;;;;;15.07;7.93;;;18.70;56.50;;;;;;5062132;28;45307;-81
2022/12/23 13:18:47;;;;;;;9.07;8.05;;;18.70;56.40;;;;;;5064366;27;45342;-79